Portada
METAR-TAF:

METAR-TAF

Aeroports :

Damasc, Síria

latitud: 33-25N, longitud: 036-31E, altitud: 608 m

Observació

L'informe es va fer fa 34 minuts, a les 05:00 UTC
Vent 3 kt amb direcció variable
Temperatura 15°C
Humitat 41%
Pressió 1021 hPa
Visibilitat 10 km o més
sense núvols per sota de 1500 mi sense presència de cumulonimbus.

METAR: OSDI 200500Z VRB03KT CAVOK 15/02 Q1021

Hora: 08:34 (05:34 UTC)

Pronòstic

Pronòstic vàlid del 20 a les 00 UTC al 21 a les 06 UTC
Vent 3 kt amb direcció variable
Visibilitat 10 km o més
sense núvols per sota de 1500 mi sense presència de cumulonimbus.
Temporalment
l' 20 a les 09 UTC al 20 a les 18 UTC
Vent 15 kt del Sud-Oest
Visibilitat: 8000 m
Escasses núvols a una alçada de 3000 ft

TAF: OSDI 2000/2106 VRB03KT CAVOK TEMPO 2009/2018 22015KT 8000 FEW030

Observacions i pronòstics meteorològics de més de 4000 aeroports (METAR i TAF).

Les estacions disponibles són els punts grocs i vermells al mapa.

Posi el ratolí al punt desitjat per veure el nom de l'estació.

Feu clic per veure les observacions i els pronòstics meteorològics.

Per canviar el mapa: feu clic els botons verds amb una creu de color negre per apropar; al botó verd amb un guió per allunyar la imatge; o en les fletxes verdes per a mapes adjacents.


METAR-TAF: